Leyna Grace — LEYNA1 — position and weather

sailwx.info

Track history (hours):
 
Tides and Currents Weather Stations Pressure Air Temp Water Temp Dewpoint Dewpoint Depression Visibility Wind Speed Wind Dir Waves Ship Positions

Leyna Grace

Last reported at 2015-Aug-23 18:16 UTC. Time now 2015-Aug-30 16:01 UTC.
Position N 40°58' W 073°25'.

Length 14 m.

Type: Pleasure craft. MMSI: 338086517.

Date/timePositionNaut miles runAvg speedWind from/ knotsBaromVisibWave heightAir tempDewpointWater temp
2015-Aug-23 18:16N 40°58' W 073°25'2916.1
2015-Aug-23 16:29N 41°04' W 072°48'1516.2
2015-Aug-23 15:33N 41°07' W 072°28'8 8.4
2015-Aug-23 14:33N 41°07' W 072°17'2 0.1
2015-Aug-22 20:25N 41°07' W 072°20'0 0.0
2015-Aug-22 19:31N 41°07' W 072°20'0 0.0
2015-Aug-22 18:31N 41°07' W 072°20'0 0.0
2015-Aug-22 17:28N 41°07' W 072°20'1112.4
2015-Aug-22 16:33N 41°09' W 072°05'1615.9
2015-Aug-22 15:33N 41°11' W 071°44'7 0.5
2015-Aug-22 00:31N 41°11' W 071°35'0 0.0
2015-Aug-21 23:31N 41°11' W 071°35'0 0.0
2015-Aug-21 22:31N 41°11' W 071°35'0 0.0
2015-Aug-21 21:31N 41°11' W 071°35'0 0.0
2015-Aug-21 20:31N 41°11' W 071°35'0 0.0
2015-Aug-21 19:31N 41°11' W 071°35'0 0.0
2015-Aug-21 18:31N 41°11' W 071°35'0 0.0
2015-Aug-21 17:31N 41°11' W 071°35'3 2.7
2015-Aug-21 16:33N 41°14' W 071°35'  
2015-Aug-17 15:32N 41°20' W 071°55'9 9.7
2015-Aug-17 14:33N 41°17' W 072°07'1110.9
2015-Aug-17 13:33N 41°19' W 072°21'3 0.2
2015-Aug-16 19:16N 41°21' W 072°23'0 0.0
2015-Aug-16 18:28N 41°21' W 072°23'0 0.0
2015-Aug-16 17:31N 41°21' W 072°23'5 5.3
2015-Aug-16 16:33N 41°16' W 072°20'9 9.0
2015-Aug-16 15:31N 41°07' W 072°20'  
2015-Aug-13 21:33N 41°08' W 072°14'1717.2
2015-Aug-13 20:33N 41°07' W 072°37'2020.3
2015-Aug-13 19:33N 41°02' W 073°03'  
Track history (hours):
 
Tides and Currents Weather Stations Pressure Air Temp Water Temp Dewpoint Dewpoint Depression Visibility Wind Speed Wind Dir Waves Ship Positions

Leyna Grace

Last reported at 2015-Aug-23 18:16 UTC. Time now 2015-Aug-30 16:01 UTC.
Position N 40°58' W 073°25'.

Length 14 m.

Type: Pleasure craft. MMSI: 338086517.

Date/timePositionNaut miles runAvg speedWind from/ knotsBaromVisibWave heightAir tempDewpointWater temp
2015-Aug-23 18:16N 40°58' W 073°25'2916.1
2015-Aug-23 16:29N 41°04' W 072°48'1516.2
2015-Aug-23 15:33N 41°07' W 072°28'8 8.4
2015-Aug-23 14:33N 41°07' W 072°17'2 0.1
2015-Aug-22 20:25N 41°07' W 072°20'0 0.0
2015-Aug-22 19:31N 41°07' W 072°20'0 0.0
2015-Aug-22 18:31N 41°07' W 072°20'0 0.0
2015-Aug-22 17:28N 41°07' W 072°20'1112.4
2015-Aug-22 16:33N 41°09' W 072°05'1615.9
2015-Aug-22 15:33N 41°11' W 071°44'7 0.5
2015-Aug-22 00:31N 41°11' W 071°35'0 0.0
2015-Aug-21 23:31N 41°11' W 071°35'0 0.0
2015-Aug-21 22:31N 41°11' W 071°35'0 0.0
2015-Aug-21 21:31N 41°11' W 071°35'0 0.0
2015-Aug-21 20:31N 41°11' W 071°35'0 0.0
2015-Aug-21 19:31N 41°11' W 071°35'0 0.0
2015-Aug-21 18:31N 41°11' W 071°35'0 0.0
2015-Aug-21 17:31N 41°11' W 071°35'3 2.7
2015-Aug-21 16:33N 41°14' W 071°35'  
2015-Aug-17 15:32N 41°20' W 071°55'9 9.7
2015-Aug-17 14:33N 41°17' W 072°07'1110.9
2015-Aug-17 13:33N 41°19' W 072°21'3 0.2
2015-Aug-16 19:16N 41°21' W 072°23'0 0.0
2015-Aug-16 18:28N 41°21' W 072°23'0 0.0
2015-Aug-16 17:31N 41°21' W 072°23'5 5.3
2015-Aug-16 16:33N 41°16' W 072°20'9 9.0
2015-Aug-16 15:31N 41°07' W 072°20'  
2015-Aug-13 21:33N 41°08' W 072°14'1717.2
2015-Aug-13 20:33N 41°07' W 072°37'2020.3
2015-Aug-13 19:33N 41°02' W 073°03'  

Dump ship's entire track history